Time;durP1;ratioP1;P1;durP2;ratioP2;P2;SDS_P1;SDS_P2;PMS_P1;PMS_P2;Temp;Humidity;BMP_temperature;BMP_pressure;BME280_temperature;BME280_humidity;BME280_pressure;Samples;Min_cycle;Max_cycle;Signal;HPM_P1;HPM_P2
2022/05/24 00:00:52;;;;;;;8.40;4.70;;;;;;;14.96;86.02;96749.84;6255538;28;20223;-45
2022/05/24 00:03:56;;;;;;;5.17;4.37;;;;;;;15.11;86.55;96747.25;6251674;28;20235;-47
2022/05/24 00:06:59;;;;;;;7.43;4.57;;;;;;;15.25;85.90;96735.06;6256026;28;20235;-47
2022/05/24 00:10:02;;;;;;;6.37;4.17;;;;;;;15.14;85.82;96744.28;6255658;28;20345;-47
2022/05/24 00:13:08;;;;;;;7.70;5.03;;;;;;;15.11;86.45;96752.56;6255527;28;20227;-48
2022/05/24 00:16:10;;;;;;;5.27;4.10;;;;;;;15.20;86.40;96743.56;6238096;28;20234;-49
2022/05/24 00:19:12;;;;;;;5.93;4.33;;;;;;;15.25;86.08;96754.50;6254839;28;20231;-49
2022/05/24 00:22:14;;;;;;;6.00;4.27;;;;;;;15.26;86.27;96750.84;6255213;28;20243;-46
2022/05/24 00:25:16;;;;;;;7.37;4.10;;;;;;;15.29;86.15;96745.16;6255889;28;20825;-47
2022/05/24 00:28:20;;;;;;;5.40;4.07;;;;;;;15.30;86.07;96746.00;6255041;28;20784;-48
2022/05/24 00:31:22;;;;;;;4.70;3.53;;;;;;;15.31;86.23;96737.84;6256365;28;20238;-46
2022/05/24 00:34:24;;;;;;;5.73;4.10;;;;;;;15.33;86.26;96730.53;6256277;28;20714;-47
2022/05/24 00:37:28;;;;;;;5.13;3.93;;;;;;;15.34;86.39;96728.69;6233532;28;20302;-47
2022/05/24 00:41:04;;;;;;;5.37;3.97;;;;;;;15.34;86.34;96729.53;6231183;28;20240;-47
2022/05/24 00:44:22;;;;;;;5.87;4.47;;;;;;;15.27;86.38;96720.56;6255870;28;20223;-46
2022/05/24 00:47:38;;;;;;;7.27;4.43;;;;;;;15.24;86.48;96723.59;6254578;28;20238;-48
2022/05/24 00:50:47;;;;;;;6.30;5.23;;;;;;;15.18;86.41;96721.63;6255092;28;20788;-47
2022/05/24 00:53:54;;;;;;;5.50;4.20;;;;;;;15.14;86.44;96715.88;6253992;28;20253;-46
2022/05/24 00:57:03;;;;;;;5.00;4.17;;;;;;;15.13;86.46;96726.66;6254515;28;20227;-44
2022/05/24 01:00:10;;;;;;;6.43;4.83;;;;;;;15.07;86.48;96716.75;6254441;28;20238;-47
2022/05/24 01:03:13;;;;;;;6.70;4.40;;;;;;;15.07;86.48;96714.09;6245766;28;20768;-47
2022/05/24 01:06:15;;;;;;;7.30;4.70;;;;;;;15.05;86.58;96708.94;6279634;28;20222;-43
2022/05/24 01:09:26;;;;;;;6.00;5.13;;;;;;;15.00;86.67;96702.47;6278050;28;20728;-43
2022/05/24 01:12:37;;;;;;;5.97;5.07;;;;;;;14.96;86.92;96695.88;6279554;28;20606;-43
2022/05/24 01:15:39;;;;;;;5.50;5.00;;;;;;;14.92;86.67;96690.06;6277990;28;20319;-44
2022/05/24 01:18:42;;;;;;;4.97;4.47;;;;;;;14.94;86.73;96681.94;6278791;28;20664;-43
2022/05/24 01:21:45;;;;;;;5.13;4.63;;;;;;;14.98;86.76;96680.56;6277899;28;20234;-43
2022/05/24 01:25:07;;;;;;;6.93;4.87;;;;;;;15.00;86.53;96691.84;6277628;28;20716;-43
2022/05/24 01:28:24;;;;;;;5.00;4.40;;;;;;;14.98;86.71;96700.00;6278394;28;20316;-44
2022/05/24 01:36:09;;;;;;;4.33;3.93;;;;;;;15.01;86.72;96686.38;6278608;28;20430;-43
2022/05/24 01:38:17;;;;;;;5.50;4.53;;;;;;;15.02;86.85;96703.97;6278203;28;20242;-45
2022/05/24 01:41:30;;;;;;;4.30;4.00;;;;;;;14.98;86.71;96699.16;6277858;28;20250;-44
2022/05/24 01:44:44;;;;;;;4.13;3.73;;;;;;;14.98;86.28;96699.16;6278648;28;20245;-45
2022/05/24 01:47:52;;;;;;;4.40;4.00;;;;;;;14.99;86.67;96703.47;6278249;28;20656;-45
2022/05/24 01:50:56;;;;;;;4.73;3.80;;;;;;;14.99;86.51;96698.16;6278896;28;20630;-43
2022/05/24 01:54:03;;;;;;;5.27;4.17;;;;;;;14.97;86.65;96698.34;6278224;28;20300;-44
2022/05/24 01:57:19;;;;;;;4.30;3.90;;;;;;;14.98;86.91;96715.09;6277750;28;20223;-44
2022/05/24 02:00:21;;;;;;;4.70;4.10;;;;;;;14.97;86.63;96710.81;6279293;28;20238;-43
2022/05/24 02:03:24;;;;;;;4.83;3.70;;;;;;;14.98;86.70;96707.97;6267465;28;20704;-44
2022/05/24 02:06:28;;;;;;;4.17;3.53;;;;;;;14.98;86.65;96709.78;6254564;28;20235;-43
2022/05/24 02:09:30;;;;;;;3.90;3.60;;;;;;;14.98;86.85;96710.63;6253958;28;20610;-43
2022/05/24 02:12:43;;;;;;;4.27;3.83;;;;;;;14.96;86.75;96715.31;6253950;28;20304;-45
2022/05/24 02:15:51;;;;;;;4.23;3.83;;;;;;;14.89;86.82;96705.53;6253374;28;20238;-46
2022/05/24 02:18:54;;;;;;;4.40;3.87;;;;;;;14.91;87.19;96712.31;6253713;28;20520;-43
2022/05/24 02:22:03;;;;;;;3.67;3.37;;;;;;;14.91;87.09;96720.28;6253218;28;20328;-43
2022/05/24 02:25:30;;;;;;;4.30;3.60;;;;;;;14.91;87.07;96712.31;6253767;28;20231;-44
2022/05/24 02:28:32;;;;;;;3.77;3.40;;;;;;;14.92;87.02;96710.50;6253664;28;20326;-44
2022/05/24 02:31:35;;;;;;;4.60;3.43;;;;;;;14.86;86.72;96712.03;6253754;28;20246;-43
2022/05/24 02:34:37;;;;;;;3.73;3.43;;;;;;;14.79;87.06;96713.69;6253262;28;20223;-43
2022/05/24 02:37:40;;;;;;;3.70;3.33;;;;;;;14.74;87.09;96722.22;6252770;28;20772;-44
2022/05/24 02:44:09;;;;;;;6.47;4.00;;;;;;;14.63;87.09;96719.09;6228577;28;20228;-44
2022/05/24 02:47:11;;;;;;;4.23;3.60;;;;;;;14.60;87.78;96717.59;6250509;28;20236;-44
2022/05/24 02:50:15;;;;;;;5.87;4.03;;;;;;;14.58;87.94;96716.94;6252812;28;20235;-43
2022/05/24 02:53:17;;;;;;;5.50;4.07;;;;;;;14.56;88.01;96715.47;6255154;28;20312;-43
2022/05/24 02:56:19;;;;;;;4.30;3.90;;;;;;;14.54;88.33;96720.94;6257291;28;20710;-44
2022/05/24 02:59:21;;;;;;;4.63;3.97;;;;;;;14.50;88.01;96724.94;6256809;28;20246;-45
2022/05/24 03:02:23;;;;;;;5.37;3.77;;;;;;;14.53;88.21;96726.44;6261139;28;20846;-43
2022/05/24 03:05:27;;;;;;;6.33;4.00;;;;;;;14.56;88.41;96726.09;6263686;28;20701;-44
2022/05/24 03:15:10;;;;;;;4.83;4.43;;;;;;;14.67;88.00;96729.19;6281407;28;20709;-43
2022/05/24 03:18:14;;;;;;;6.13;5.03;;;;;;;14.70;87.99;96723.53;6254553;28;20608;-46
2022/05/24 03:21:16;;;;;;;5.33;4.43;;;;;;;14.65;88.19;96733.03;6275869;28;20226;-43
2022/05/24 03:24:18;;;;;;;5.60;4.63;;;;;;;14.65;88.13;96735.69;6280947;28;20245;-43
2022/05/24 03:27:20;;;;;;;8.33;5.03;;;;;;;14.62;88.15;96736.84;6281284;28;20804;-43
2022/05/24 03:30:23;;;;;;;4.07;3.77;;;;;;;14.62;88.27;96728.06;6281322;28;20238;-45
2022/05/24 03:33:25;;;;;;;5.73;4.17;;;;;;;14.63;88.47;96737.69;6280769;28;20226;-49
2022/05/24 03:36:27;;;;;;;4.33;3.70;;;;;;;14.62;88.00;96736.03;6279281;28;20280;-45
2022/05/24 03:39:29;;;;;;;5.00;4.37;;;;;;;14.63;88.23;96746.47;6281534;28;20233;-45
2022/05/24 03:42:31;;;;;;;4.90;4.27;;;;;;;14.62;88.07;96744.81;6286080;28;20635;-43
2022/05/24 03:45:35;;;;;;;5.33;4.83;;;;;;;14.57;88.18;96744.53;6281624;28;20229;-45
2022/05/24 03:48:38;;;;;;;5.73;4.40;;;;;;;14.56;88.35;96747.34;6279923;28;20717;-43
2022/05/24 03:51:41;;;;;;;5.07;4.57;;;;;;;14.56;88.58;96752.66;6280627;28;20303;-45
2022/05/24 03:54:43;;;;;;;4.80;4.30;;;;;;;14.56;88.35;96753.47;6280774;28;20284;-46
2022/05/24 03:58:02;;;;;;;4.27;3.87;;;;;;;14.60;88.42;96753.94;6280267;28;20459;-48
2022/05/24 04:01:04;;;;;;;5.00;4.50;;;;;;;14.59;88.20;96746.97;6274598;28;20683;-46
2022/05/24 04:04:06;;;;;;;6.57;5.13;;;;;;;14.61;87.96;96748.47;6267740;28;20235;-43
2022/05/24 04:07:09;;;;;;;5.93;5.13;;;;;;;14.60;88.00;96765.41;6279077;28;20348;-43
2022/05/24 04:10:13;;;;;;;5.83;4.47;;;;;;;14.63;87.96;96754.44;6280394;28;20705;-44
2022/05/24 04:13:15;;;;;;;5.60;5.10;;;;;;;14.61;88.40;96759.09;6279142;28;20249;-45
2022/05/24 04:16:17;;;;;;;8.30;5.60;;;;;;;14.61;88.16;96761.75;6279249;28;20285;-43
2022/05/24 04:19:19;;;;;;;6.77;5.07;;;;;;;14.64;88.37;96766.72;6279972;28;20329;-46
2022/05/24 04:22:21;;;;;;;5.97;5.37;;;;;;;14.65;88.42;96760.41;6278888;28;20234;-44
2022/05/24 04:25:25;;;;;;;8.07;4.77;;;;;;;14.68;88.63;96772.50;6280062;28;20234;-47
2022/05/24 04:28:27;;;;;;;6.30;4.57;;;;;;;14.73;88.55;96775.50;6279198;28;20320;-44
2022/05/24 04:31:35;;;;;;;6.10;5.50;;;;;;;14.86;88.23;96783.75;6279858;28;20234;-43
2022/05/24 04:34:38;;;;;;;5.27;4.40;;;;;;;14.91;88.24;96777.91;6279904;28;20772;-48
2022/05/24 04:37:40;;;;;;;5.90;5.10;;;;;;;14.91;87.98;96783.22;6278978;28;20241;-43
2022/05/24 04:44:03;;;;;;;5.03;4.50;;;;;;;15.01;88.02;96789.16;6279768;28;20229;-46
2022/05/24 04:47:08;;;;;;;6.13;4.53;;;;;;;15.12;87.68;96781.66;6278984;28;20612;-43
2022/05/24 04:50:12;;;;;;;4.90;4.50;;;;;;;15.25;87.76;96789.06;6279152;28;20569;-45
2022/05/24 04:53:15;;;;;;;4.63;4.23;;;;;;;15.29;87.42;96792.19;6279665;28;20519;-46
2022/05/24 04:56:17;;;;;;;4.63;4.23;;;;;;;15.34;87.62;96789.84;6281026;28;20709;-45
2022/05/24 04:59:19;;;;;;;4.57;4.17;;;;;;;15.34;87.73;96792.50;6277554;28;20222;-46
2022/05/24 05:02:22;;;;;;;4.53;4.10;;;;;;;15.39;87.49;96798.13;6278882;28;20326;-44
2022/05/24 05:05:24;;;;;;;5.70;3.80;;;;;;;15.43;87.13;96802.09;6279146;28;20324;-46
2022/05/24 05:08:29;;;;;;;4.03;3.73;;;;;;;15.44;86.90;96807.25;6278697;28;20241;-43
2022/05/24 05:11:31;;;;;;;5.07;4.57;;;;;;;15.43;86.63;96807.41;6278950;28;20706;-46
2022/05/24 05:14:34;;;;;;;4.77;4.30;;;;;;;15.46;86.40;96813.22;6261383;28;20230;-44
2022/05/24 05:17:43;;;;;;;6.60;4.63;;;;;;;15.53;86.32;96816.00;6277295;28;20237;-44
2022/05/24 05:20:45;;;;;;;5.60;5.07;;;;;;;15.63;86.16;96821.94;6278373;28;20307;-43
2022/05/24 05:23:47;;;;;;;5.53;5.03;;;;;;;15.76;85.90;96829.34;6278714;28;20324;-46
2022/05/24 05:26:50;;;;;;;6.17;5.57;;;;;;;15.85;85.17;96830.97;6277927;28;20222;-46
2022/05/24 05:33:13;;;;;;;6.40;5.80;;;;;;;16.10;84.38;96850.22;6277686;28;20690;-47
2022/05/24 05:36:16;;;;;;;6.60;5.90;;;;;;;16.21;83.91;96855.97;6276818;28;20393;-43
2022/05/24 05:39:18;;;;;;;8.43;6.10;;;;;;;16.36;83.26;96865.84;6278242;28;20247;-44
2022/05/24 05:42:21;;;;;;;6.20;5.60;;;;;;;16.52;82.54;96873.69;6277005;28;20582;-47
2022/05/24 05:45:23;;;;;;;6.23;5.63;;;;;;;16.53;81.13;96873.53;6277373;28;20226;-46
2022/05/24 05:48:26;;;;;;;6.10;5.57;;;;;;;16.73;80.34;96883.69;6278043;28;20697;-48
2022/05/24 05:51:28;;;;;;;6.10;4.60;;;;;;;16.85;79.62;96891.06;6278193;28;20708;-45
2022/05/24 05:54:33;;;;;;;6.90;5.43;;;;;;;17.12;78.72;96897.63;6277825;28;20602;-47
2022/05/24 05:57:36;;;;;;;7.30;5.10;;;;;;;17.16;77.56;96888.25;6277679;28;20233;-47
2022/05/24 06:00:39;;;;;;;5.83;4.33;;;;;;;17.21;77.14;96893.03;6278235;28;20238;-45
2022/05/24 06:03:41;;;;;;;5.43;4.93;;;;;;;17.15;76.55;96894.59;6278535;28;20226;-46
2022/05/24 06:06:47;;;;;;;5.00;3.87;;;;;;;17.29;75.82;96896.41;6277367;28;20226;-45
2022/05/24 06:09:50;;;;;;;7.13;5.20;;;;;;;17.36;75.59;96893.03;6278136;28;20686;-47
2022/05/24 06:12:52;;;;;;;4.93;4.40;;;;;;;17.22;75.38;96895.50;6278110;28;20701;-46
2022/05/24 06:15:55;;;;;;;5.27;4.70;;;;;;;17.32;75.99;96900.56;6277816;28;20263;-45
2022/05/24 06:18:57;;;;;;;5.40;4.90;;;;;;;17.37;75.18;96908.03;6277254;28;20226;-44
2022/05/24 06:21:59;;;;;;;5.67;5.17;;;;;;;17.37;75.08;96905.38;6277552;28;20225;-48
2022/05/24 06:25:01;;;;;;;5.53;5.03;;;;;;;17.53;74.32;96902.50;6277572;28;20218;-47
2022/05/24 06:28:04;;;;;;;5.40;4.87;;;;;;;17.74;73.37;96899.09;6278928;28;20449;-45
2022/05/24 06:31:07;;;;;;;5.73;4.60;;;;;;;17.83;73.46;96898.78;6282315;28;20236;-47
2022/05/24 06:34:09;;;;;;;5.43;4.60;;;;;;;17.87;73.28;96899.22;6281116;28;20345;-47
2022/05/24 06:37:11;;;;;;;5.67;5.13;;;;;;;18.08;72.81;96893.94;6282711;28;20700;-48
2022/05/24 06:40:17;;;;;;;5.90;5.07;;;;;;;18.29;71.73;96883.25;6282313;28;20239;-46
2022/05/24 06:43:19;;;;;;;6.87;4.47;;;;;;;18.57;70.71;96885.16;6281833;28;20307;-48
2022/05/24 06:46:21;;;;;;;5.13;4.53;;;;;;;18.80;69.31;96885.78;6282200;28;20692;-48
2022/05/24 06:49:24;;;;;;;4.63;4.23;;;;;;;19.15;69.19;96873.28;6281567;28;20238;-48
2022/05/24 06:52:26;;;;;;;4.30;3.80;;;;;;;19.48;68.13;96873.47;6281851;28;20260;-48
2022/05/24 06:55:28;;;;;;;6.37;4.47;;;;;;;19.59;67.02;96874.78;6257624;28;20235;-50
2022/05/24 06:58:31;;;;;;;4.87;4.33;;;;;;;19.83;66.48;96875.09;6277079;28;20603;-48
2022/05/24 07:05:21;;;;;;;4.43;4.03;;;;;;;19.61;67.49;96864.69;6230118;28;20232;-49
2022/05/24 07:08:23;;;;;;;3.43;3.10;;;;;;;19.99;66.41;96862.34;6231889;28;20235;-48
2022/05/24 07:11:25;;;;;;;3.83;3.43;;;;;;;20.40;65.44;96862.25;6229207;28;20591;-47
2022/05/24 07:14:28;;;;;;;5.17;3.40;;;;;;;20.80;64.11;96874.63;6228460;28;20742;-47
2022/05/24 07:17:30;;;;;;;5.07;3.50;;;;;;;21.22;63.32;96883.31;6229028;28;20224;-47
2022/05/24 07:20:34;;;;;;;3.33;2.80;;;;;;;21.64;62.04;96869.34;6228138;28;20745;-43
2022/05/24 07:23:38;;;;;;;5.77;3.50;;;;;;;21.76;60.68;96871.38;6228967;28;20245;-43
2022/05/24 07:26:42;;;;;;;4.60;3.67;;;;;;;21.82;60.47;96868.66;6228892;28;20322;-43
2022/05/24 07:29:59;;;;;;;4.53;3.07;;;;;;;22.01;59.95;96873.13;6203939;28;20291;-44
2022/05/24 07:33:02;;;;;;;4.90;3.80;;;;;;;22.57;58.34;96871.53;6225865;28;20673;-44
2022/05/24 07:36:05;;;;;;;3.40;3.10;;;;;;;22.50;58.07;96876.97;6260737;28;20637;-45
2022/05/24 07:39:08;;;;;;;3.10;2.80;;;;;;;22.50;58.04;96870.75;6261882;28;20787;-45
2022/05/24 07:45:48;;;;;;;7.33;3.20;;;;;;;23.47;55.39;96876.31;6281290;28;20230;-43
2022/05/24 07:48:50;;;;;;;3.20;2.93;;;;;;;23.95;54.07;96869.38;6280827;28;20231;-43
2022/05/24 07:51:52;;;;;;;4.93;3.80;;;;;;;24.35;52.24;96875.91;6280927;28;20254;-45
2022/05/24 07:54:54;;;;;;;3.50;2.90;;;;;;;24.79;52.68;96868.34;6279891;28;20218;-45
2022/05/24 07:57:58;;;;;;;4.77;3.27;;;;;;;24.43;53.81;96861.25;6279757;28;20600;-45
2022/05/24 08:01:00;;;;;;;2.17;2.00;;;;;;;23.93;54.99;96858.81;6280065;28;20608;-44
2022/05/24 08:04:03;;;;;;;2.93;2.60;;;;;;;23.71;56.31;96865.72;6280559;28;20316;-46
2022/05/24 08:07:07;;;;;;;4.77;2.90;;;;;;;23.65;56.50;96866.63;6263169;28;20313;-44
2022/05/24 08:10:09;;;;;;;4.13;3.00;;;;;;;23.42;54.95;96869.97;6279167;28;20307;-45
2022/05/24 08:13:19;;;;;;;4.57;3.70;;;;;;;23.75;54.14;96865.06;6279978;28;20230;-46
2022/05/24 08:16:21;;;;;;;3.57;3.00;;;;;;;24.26;52.05;96866.47;6279969;28;20537;-46
2022/05/24 08:19:23;;;;;;;3.70;2.87;;;;;;;24.64;52.70;96866.94;6279840;28;20230;-45
2022/05/24 08:22:25;;;;;;;6.30;3.37;;;;;;;24.88;50.83;96869.66;6278627;28;20245;-46
2022/05/24 08:25:28;;;;;;;4.87;3.30;;;;;;;24.75;50.71;96864.50;6280879;28;20234;-48
2022/05/24 08:28:30;;;;;;;5.03;3.13;;;;;;;25.00;50.23;96865.94;6279876;28;20713;-48
2022/05/24 08:31:40;;;;;;;3.43;2.63;;;;;;;25.61;49.64;96861.94;6279759;28;20235;-44
2022/05/24 08:34:43;;;;;;;3.63;3.33;;;;;;;25.19;49.53;96868.53;6279113;28;20233;-48
2022/05/24 08:37:46;;;;;;;4.00;3.33;;;;;;;24.89;50.51;96866.72;6279395;28;20847;-44
2022/05/24 08:40:50;;;;;;;5.00;3.10;;;;;;;24.84;50.58;96863.09;6279716;28;20763;-46
2022/05/24 08:51:28;;;;;;;4.27;3.47;;;;;;;24.27;50.84;96871.63;6278469;28;20242;-48
2022/05/24 08:54:45;;;;;;;7.80;3.57;;;;;;;24.43;51.61;96875.56;6276439;28;20689;-49
2022/05/24 08:57:54;;;;;;;5.27;4.03;;;;;;;25.25;49.82;96878.41;6277982;28;20235;-45
2022/05/24 09:00:57;;;;;;;3.87;3.40;;;;;;;25.39;48.52;96863.59;6278900;28;20333;-44
2022/05/24 09:04:01;;;;;;;4.32;3.63;;;;;;;25.70;49.25;96860.50;6277832;28;20238;-45
2022/05/24 09:07:33;;;;;;;6.57;4.43;;;;;;;25.80;47.86;96849.09;6259046;28;20449;-45
2022/05/24 09:10:53;;;;;;;4.40;3.10;;;;;;;25.52;48.97;96851.72;6277889;28;20234;-46
2022/05/24 09:14:29;;;;;;;6.68;3.65;;;;;;;26.07;47.95;96852.03;6278720;28;20752;-46
2022/05/24 09:17:49;;;;;;;3.65;3.28;;;;;;;26.29;47.57;96849.50;6248882;28;20214;-46
2022/05/24 09:20:52;;;;;;;4.22;3.22;;;;;;;26.42;46.78;96858.16;6278318;28;20222;-46
2022/05/24 09:24:21;;;;;;;4.75;3.38;;;;;;;26.06;45.35;96861.22;6277954;28;20226;-47
2022/05/24 09:27:28;;;;;;;4.90;3.42;;;;;;;25.86;45.92;96861.63;6278501;28;20226;-48
2022/05/24 09:30:30;;;;;;;5.05;3.30;;;;;;;24.93;47.48;96870.66;6279488;28;20309;-45
2022/05/24 09:33:32;;;;;;;3.55;2.58;;;;;;;25.39;47.95;96860.88;6278323;28;20662;-47
2022/05/24 09:36:41;;;;;;;3.20;2.63;;;;;;;25.86;47.18;96853.53;6277851;28;20321;-45
2022/05/24 09:39:56;;;;;;;4.60;3.33;;;;;;;25.51;46.85;96860.88;6278300;28;20230;-47
2022/05/24 09:43:16;;;;;;;3.83;2.85;;;;;;;24.87;47.56;96876.94;6259836;28;20226;-45
2022/05/24 09:46:23;;;;;;;2.83;2.63;;;;;;;24.48;49.05;96880.25;6277093;28;20718;-44
2022/05/24 09:49:34;;;;;;;5.78;3.38;;;;;;;24.59;49.25;96866.81;6278615;28;20222;-46
2022/05/24 09:52:36;;;;;;;7.28;3.08;;;;;;;24.71;49.10;96874.94;6277791;28;20230;-46
2022/05/24 09:56:00;;;;;;;7.10;3.42;;;;;;;24.55;48.65;96881.81;6278302;28;20322;-44
2022/05/24 09:59:06;;;;;;;4.60;2.90;;;;;;;24.40;49.83;96884.09;6276930;28;20729;-45
2022/05/24 10:02:31;;;;;;;5.63;4.20;;;;;;;24.58;49.28;96889.44;6278623;28;20226;-44
2022/05/24 10:05:34;;;;;;;3.92;2.90;;;;;;;24.55;49.43;96892.63;6259458;28;20296;-45
2022/05/24 10:08:43;;;;;;;3.88;2.90;;;;;;;24.25;49.91;96887.25;6260797;28;20239;-45
2022/05/24 10:11:58;;;;;;;4.35;2.90;;;;;;;24.25;50.30;96889.13;6261577;28;20245;-48
2022/05/24 10:15:11;;;;;;;6.13;3.17;;;;;;;24.13;50.44;96885.50;6260612;28;20227;-48
2022/05/24 10:18:29;;;;;;;3.73;3.03;;;;;;;24.07;51.87;96889.91;6259621;28;20226;-48
2022/05/24 10:21:43;;;;;;;2.77;2.27;;;;;;;24.32;52.85;96887.13;6260928;28;20801;-46
2022/05/24 10:24:45;;;;;;;4.82;2.70;;;;;;;24.46;53.25;96888.56;6261307;28;20321;-47
2022/05/24 10:28:10;;;;;;;7.53;2.50;;;;;;;24.45;51.91;96895.06;6261103;28;20230;-45
2022/05/24 10:31:37;;;;;;;7.47;3.20;;;;;;;24.22;52.37;96868.00;6264548;28;20604;-46
2022/05/24 10:38:38;;;;;;;2.90;2.55;;;;;;;25.12;50.93;96884.88;6259459;28;20714;-45
2022/05/24 10:41:52;;;;;;;4.78;3.90;;;;;;;25.79;47.63;96866.38;6260855;28;20322;-48
2022/05/24 10:45:01;;;;;;;5.15;2.90;;;;;;;26.65;47.43;96865.31;6260535;28;20572;-45
2022/05/24 10:48:08;;;;;;;5.45;2.60;;;;;;;27.23;45.70;96874.94;6259859;28;20235;-46
2022/05/24 10:51:23;;;;;;;4.80;2.58;;;;;;;27.29;44.00;96883.97;6242703;28;20219;-47
2022/05/24 10:54:41;;;;;;;4.15;2.80;;;;;;;26.61;46.30;96875.00;6261954;28;20262;-47
2022/05/24 10:58:01;;;;;;;5.32;2.90;;;;;;;26.15;47.47;96869.78;6260450;28;20814;-49
2022/05/24 11:01:45;;;;;;;4.00;3.42;;;;;;;25.77;47.76;96862.25;6259395;28;20285;-47
2022/05/24 11:05:13;;;;;;;4.10;2.58;;;;;;;25.41;49.76;96863.34;6234525;28;20226;-47
2022/05/24 11:09:01;;;;;;;5.18;2.70;;;;;;;25.73;48.75;96859.22;6285408;28;20234;-46
2022/05/24 11:12:07;;;;;;;2.70;2.50;;;;;;;26.07;49.62;96860.97;6161077;28;20296;-45
2022/05/24 11:15:18;;;;;;;3.42;2.35;;;;;;;26.44;47.73;96858.75;6161617;28;20221;-47
2022/05/24 11:18:24;;;;;;;3.33;2.50;;;;;;;26.32;48.80;96865.25;6281089;28;20694;-47
2022/05/24 11:21:34;;;;;;;7.63;3.20;;;;;;;25.55;47.49;96865.59;6281671;28;20320;-46
2022/05/24 11:24:47;;;;;;;3.45;2.63;;;;;;;24.86;48.22;96877.97;6281550;28;20784;-47
2022/05/24 11:28:12;;;;;;;5.68;3.25;;;;;;;24.39;50.01;96876.25;6281194;28;20711;-45
2022/05/24 11:31:40;;;;;;;3.80;2.80;;;;;;;24.58;51.01;96881.34;6256106;28;20242;-45
2022/05/24 11:34:58;;;;;;;3.97;3.00;;;;;;;24.69;50.83;96887.00;6256355;28;20234;-49
2022/05/24 11:38:20;;;;;;;5.22;3.05;;;;;;;24.23;52.22;96877.72;6255328;28;20238;-48
2022/05/24 11:41:33;;;;;;;6.50;2.80;;;;;;;24.02;53.30;96880.88;6255536;28;20781;-46
2022/05/24 11:44:37;;;;;;;3.80;2.75;;;;;;;23.85;53.36;96886.09;6279336;28;20724;-48
2022/05/24 11:47:42;;;;;;;4.75;2.88;;;;;;;23.58;53.93;96885.56;6280743;28;20236;-48
2022/05/24 11:50:47;;;;;;;5.63;3.20;;;;;;;23.57;55.42;96886.59;6280199;28;20230;-46
2022/05/24 11:53:49;;;;;;;2.92;2.47;;;;;;;23.63;56.54;96892.97;6280186;28;20356;-47
2022/05/24 11:57:14;;;;;;;3.22;2.92;;;;;;;23.67;56.18;96873.41;6280172;28;20233;-47
2022/05/24 12:00:31;;;;;;;4.07;2.50;;;;;;;23.63;57.05;96888.41;6279489;28;20266;-46
2022/05/24 12:10:40;;;;;;;3.67;2.90;;;;;;;23.50;57.91;96907.41;6280257;28;20226;-47
2022/05/24 12:13:45;;;;;;;4.83;2.80;;;;;;;23.60;57.75;96906.88;6280104;28;20223;-45
2022/05/24 12:16:53;;;;;;;5.45;2.97;;;;;;;23.64;58.30;96911.63;6279814;28;20714;-47
2022/05/24 12:19:56;;;;;;;3.67;2.93;;;;;;;23.22;59.86;96910.56;6262951;28;20239;-46
2022/05/24 12:23:04;;;;;;;3.97;2.50;;;;;;;23.04;61.35;96916.72;6262166;28;20732;-45
2022/05/24 12:26:15;;;;;;;3.70;2.47;;;;;;;22.96;61.08;96908.91;6278895;28;20769;-46
2022/05/24 12:29:18;;;;;;;3.97;2.73;;;;;;;22.77;61.81;96902.66;6278725;28;20311;-45
2022/05/24 12:32:22;;;;;;;3.33;2.50;;;;;;;22.66;61.85;96907.91;6282640;28;20222;-48
2022/05/24 12:35:24;;;;;;;3.43;2.70;;;;;;;22.50;62.24;96905.72;6279088;28;20303;-48
2022/05/24 12:38:29;;;;;;;6.03;2.73;;;;;;;22.38;62.41;96901.03;6278993;28;20602;-47
2022/05/24 12:41:36;;;;;;;3.33;2.60;;;;;;;22.57;62.37;96903.81;6280203;28;20372;-49
2022/05/24 12:44:48;;;;;;;5.27;2.90;;;;;;;22.69;61.38;96910.97;6278648;28;20467;-48
2022/05/24 12:47:53;;;;;;;4.23;2.90;;;;;;;22.81;61.88;96916.50;6279493;28;20270;-45
2022/05/24 12:51:06;;;;;;;4.53;2.87;;;;;;;22.85;60.92;96911.50;6278928;28;20685;-47
2022/05/24 12:54:14;;;;;;;3.37;2.60;;;;;;;22.94;60.94;96916.41;6261227;28;20613;-46
2022/05/24 12:57:21;;;;;;;3.33;2.50;;;;;;;23.02;60.71;96912.59;6278551;28;20206;-46
2022/05/24 13:00:25;;;;;;;3.10;2.77;;;;;;;22.99;60.60;96902.28;6278319;28;20227;-48
2022/05/24 13:03:27;;;;;;;2.67;2.47;;;;;;;23.05;60.75;96887.94;6278648;28;20230;-49
2022/05/24 13:06:48;;;;;;;5.20;3.50;;;;;;;23.07;59.09;96870.50;6260924;28;20231;-45
2022/05/24 13:09:50;;;;;;;3.10;2.80;;;;;;;22.98;57.87;96885.28;6279626;28;20628;-47
2022/05/24 13:13:00;;;;;;;3.43;2.57;;;;;;;23.27;58.54;96891.84;6278218;28;20313;-47
2022/05/24 13:16:06;;;;;;;5.13;3.27;;;;;;;23.58;56.01;96899.03;6278924;28;20319;-44
2022/05/24 13:19:08;;;;;;;3.03;2.63;;;;;;;23.66;55.40;96904.09;6277861;28;20267;-47
2022/05/24 13:22:10;;;;;;;5.53;2.20;;;;;;;24.14;54.11;96906.84;6278197;28;20673;-45
2022/05/24 13:25:45;;;;;;;2.87;2.67;;;;;;;24.46;53.19;96904.75;6278640;28;20261;-48
2022/05/24 13:28:55;;;;;;;5.20;3.43;;;;;;;24.00;53.09;96910.75;6277858;28;20687;-49
2022/05/24 13:35:22;;;;;;;4.40;2.87;;;;;;;24.02;52.33;96891.66;6278778;28;20229;-48
2022/05/24 13:38:26;;;;;;;5.73;3.23;;;;;;;24.12;51.61;96891.94;6277394;28;20411;-49
2022/05/24 13:41:38;;;;;;;4.67;3.23;;;;;;;24.06;51.49;96890.97;6278269;28;20321;-44
2022/05/24 13:44:42;;;;;;;4.70;3.23;;;;;;;24.24;50.58;96888.28;6278409;28;20222;-46
2022/05/24 13:48:12;;;;;;;3.30;2.70;;;;;;;25.09;49.53;96890.72;6278854;28;20357;-48
2022/05/24 13:51:34;;;;;;;5.23;3.43;;;;;;;25.05;47.55;96896.84;6268433;28;20218;-47
2022/05/24 13:54:37;;;;;;;2.90;2.60;;;;;;;25.94;47.85;96890.19;6278082;28;20702;-47
2022/05/24 13:57:48;;;;;;;5.40;3.60;;;;;;;26.74;44.33;96882.00;6278208;28;20246;-46
2022/05/24 14:00:59;;;;;;;4.88;3.13;;;;;;;27.36;43.72;96880.00;6276061;28;20733;-45
2022/05/24 14:04:16;;;;;;;2.83;2.63;;;;;;;28.51;40.29;96883.66;6277807;28;20319;-44
2022/05/24 14:07:18;;;;;;;3.13;2.67;;;;;;;28.69;40.25;96879.75;6278082;28;20235;-50
2022/05/24 14:10:21;;;;;;;6.57;2.83;;;;;;;27.52;41.07;96898.13;6277541;28;20273;-45
2022/05/24 14:13:23;;;;;;;6.35;2.90;;;;;;;26.11;44.92;96912.72;6277747;28;20230;-48
2022/05/24 14:16:26;;;;;;;4.63;2.53;;;;;;;25.70;46.34;96911.88;6277372;28;20238;-45
2022/05/24 14:19:29;;;;;;;3.15;2.67;;;;;;;25.50;48.31;96921.38;6278050;28;20246;-47
2022/05/24 14:22:32;;;;;;;3.30;2.53;;;;;;;24.95;49.80;96909.03;6277872;28;20729;-47
2022/05/24 14:25:34;;;;;;;2.78;2.58;;;;;;;24.74;50.13;96912.25;6277651;28;20234;-49
2022/05/24 14:28:36;;;;;;;2.50;2.23;;;;;;;24.23;49.81;96910.09;6276533;28;20796;-48
2022/05/24 14:31:40;;;;;;;3.58;2.55;;;;;;;24.33;49.67;96917.63;6277861;28;20234;-46
2022/05/24 14:34:43;;;;;;;6.10;2.80;;;;;;;24.38;50.54;96923.97;6277017;28;20280;-47
2022/05/24 14:37:44;;;;;;;2.70;2.40;;;;;;;24.63;50.66;96926.53;6278523;28;20776;-46
2022/05/24 14:40:48;;;;;;;3.63;2.53;;;;;;;25.45;49.71;96914.00;6279250;28;20317;-48
2022/05/24 14:44:24;;;;;;;5.13;2.50;;;;;;;26.04;46.38;96912.03;6276941;28;20230;-49
2022/05/24 14:47:27;;;;;;;3.43;2.30;;;;;;;25.67;48.28;96923.16;6277559;28;20238;-47
2022/05/24 14:50:30;;;;;;;3.80;2.35;;;;;;;25.44;47.75;96923.16;6280682;28;20226;-48
2022/05/24 14:53:33;;;;;;;5.25;2.22;;;;;;;25.37;47.41;96931.34;6281351;28;20516;-49
2022/05/24 14:56:55;;;;;;;3.45;2.10;;;;;;;24.97;49.80;96933.91;6281475;28;20264;-46
2022/05/24 14:59:57;;;;;;;2.40;2.20;;;;;;;24.41;50.73;96930.78;6280781;28;20233;-45
2022/05/24 15:02:59;;;;;;;3.00;2.70;;;;;;;23.97;51.55;96919.28;6281442;28;20863;-46
2022/05/24 15:06:01;;;;;;;4.30;2.50;;;;;;;23.56;52.89;96925.34;6281195;28;20211;-45
2022/05/24 15:15:45;;;;;;;2.67;2.30;;;;;;;23.19;55.71;96900.22;6281155;28;20329;-46
2022/05/24 15:18:48;;;;;;;3.27;2.50;;;;;;;23.06;56.27;96903.03;6281314;28;20241;-46
2022/05/24 15:21:50;;;;;;;3.10;2.67;;;;;;;22.83;57.29;96911.72;6281838;28;20364;-48
2022/05/24 15:24:52;;;;;;;3.37;2.47;;;;;;;22.70;57.55;96904.53;6281493;28;20740;-46
2022/05/24 15:27:56;;;;;;;2.73;2.53;;;;;;;22.55;58.41;96905.91;6281250;28;20237;-49
2022/05/24 15:30:58;;;;;;;4.37;2.97;;;;;;;22.23;58.18;96907.75;6280678;28;20223;-46
2022/05/24 15:34:04;;;;;;;4.73;2.80;;;;;;;21.96;59.50;96907.84;6280700;28;20387;-49
2022/05/24 15:37:08;;;;;;;3.73;2.70;;;;;;;21.79;59.85;96909.34;6281590;28;20698;-48